sensor_id;sensor_type;location;lat;lon;timestamp;pressure;altitude;pressure_sealevel;temperature;humidity
51313;BME280;37397;53.226;10.400;2023-04-24T00:01:04;99628.00;;;15.45;58.05
51313;BME280;37397;53.226;10.400;2023-04-24T00:03:34;99633.53;;;15.43;58.09
51313;BME280;37397;53.226;10.400;2023-04-24T00:06:01;99631.44;;;15.44;58.10
51313;BME280;37397;53.226;10.400;2023-04-24T00:08:28;99626.81;;;15.41;58.16
51313;BME280;37397;53.226;10.400;2023-04-24T00:10:55;99623.94;;;15.41;58.28
51313;BME280;37397;53.226;10.400;2023-04-24T00:13:21;99615.31;;;15.41;58.31
51313;BME280;37397;53.226;10.400;2023-04-24T00:15:48;99605.66;;;15.38;58.26
51313;BME280;37397;53.226;10.400;2023-04-24T00:18:15;99615.84;;;15.39;58.20
51313;BME280;37397;53.226;10.400;2023-04-24T00:20:41;99603.34;;;15.37;58.26
51313;BME280;37397;53.226;10.400;2023-04-24T00:23:09;99614.81;;;15.37;58.11
51313;BME280;37397;53.226;10.400;2023-04-24T00:25:36;99605.97;;;15.35;58.07
51313;BME280;37397;53.226;10.400;2023-04-24T00:28:02;99610.94;;;15.34;58.06
51313;BME280;37397;53.226;10.400;2023-04-24T00:30:29;99602.84;;;15.32;58.04
51313;BME280;37397;53.226;10.400;2023-04-24T00:32:55;99607.63;;;15.30;58.14
51313;BME280;37397;53.226;10.400;2023-04-24T00:35:23;99609.72;;;15.29;58.03
51313;BME280;37397;53.226;10.400;2023-04-24T00:37:49;99608.16;;;15.28;58.07
51313;BME280;37397;53.226;10.400;2023-04-24T00:40:16;99600.63;;;15.25;58.02
51313;BME280;37397;53.226;10.400;2023-04-24T00:42:43;99605.06;;;15.26;58.05
51313;BME280;37397;53.226;10.400;2023-04-24T00:45:10;99591.78;;;15.23;58.24
51313;BME280;37397;53.226;10.400;2023-04-24T00:47:37;99579.03;;;15.19;58.08
51313;BME280;37397;53.226;10.400;2023-04-24T00:50:04;99582.91;;;15.21;58.10
51313;BME280;37397;53.226;10.400;2023-04-24T00:52:33;99582.69;;;15.19;58.26
51313;BME280;37397;53.226;10.400;2023-04-24T00:54:59;99585.56;;;15.19;58.33
51313;BME280;37397;53.226;10.400;2023-04-24T00:57:26;99575.69;;;15.14;58.25
51313;BME280;37397;53.226;10.400;2023-04-24T00:59:53;99570.97;;;15.17;58.57
51313;BME280;37397;53.226;10.400;2023-04-24T01:02:21;99584.31;;;15.14;58.44
51313;BME280;37397;53.226;10.400;2023-04-24T01:04:50;99592.94;;;15.14;58.45
51313;BME280;37397;53.226;10.400;2023-04-24T01:07:20;99584.84;;;15.13;58.26
51313;BME280;37397;53.226;10.400;2023-04-24T01:09:48;99585.94;;;15.10;58.39
51313;BME280;37397;53.226;10.400;2023-04-24T01:12:15;99586.72;;;15.10;58.38
51313;BME280;37397;53.226;10.400;2023-04-24T01:14:44;99586.72;;;15.10;58.67
51313;BME280;37397;53.226;10.400;2023-04-24T01:17:10;99584.41;;;15.09;58.75
51313;BME280;37397;53.226;10.400;2023-04-24T01:19:37;99584.41;;;15.09;58.75
51313;BME280;37397;53.226;10.400;2023-04-24T01:22:10;99573.44;;;15.07;58.30
51313;BME280;37397;53.226;10.400;2023-04-24T01:24:38;99581.28;;;15.07;58.70
51313;BME280;37397;53.226;10.400;2023-04-24T01:27:05;99582.63;;;15.06;58.58
51313;BME280;37397;53.226;10.400;2023-04-24T01:29:32;99582.38;;;15.04;58.61
51313;BME280;37397;53.226;10.400;2023-04-24T01:31:59;99582.38;;;15.04;58.67
51313;BME280;37397;53.226;10.400;2023-04-24T01:34:26;99585.00;;;15.02;58.72
51313;BME280;37397;53.226;10.400;2023-04-24T01:36:53;99578.50;;;15.01;58.52
51313;BME280;37397;53.226;10.400;2023-04-24T01:39:19;99587.66;;;15.00;58.58
51313;BME280;37397;53.226;10.400;2023-04-24T01:41:47;99574.59;;;14.99;58.43
51313;BME280;37397;53.226;10.400;2023-04-24T01:44:14;99575.16;;;14.97;58.55
51313;BME280;37397;53.226;10.400;2023-04-24T01:46:41;99564.75;;;14.94;58.58
51313;BME280;37397;53.226;10.400;2023-04-24T01:49:07;99569.50;;;14.91;58.64
51313;BME280;37397;53.226;10.400;2023-04-24T01:51:34;99572.38;;;14.91;58.70
51313;BME280;37397;53.226;10.400;2023-04-24T01:54:02;99568.72;;;14.91;58.59
51313;BME280;37397;53.226;10.400;2023-04-24T01:56:29;99573.44;;;14.88;58.45
51313;BME280;37397;53.226;10.400;2023-04-24T01:58:59;99561.72;;;14.86;58.54
51313;BME280;37397;53.226;10.400;2023-04-24T02:01:26;99554.19;;;14.83;58.71
51313;BME280;37397;53.226;10.400;2023-04-24T02:03:53;99567.22;;;14.84;58.74
51313;BME280;37397;53.226;10.400;2023-04-24T02:06:19;99562.34;;;14.79;58.68
51313;BME280;37397;53.226;10.400;2023-04-24T02:08:46;99560.25;;;14.80;58.79
51313;BME280;37397;53.226;10.400;2023-04-24T02:11:13;99563.66;;;14.78;58.63
51313;BME280;37397;53.226;10.400;2023-04-24T02:13:39;99565.75;;;14.77;58.69
51313;BME280;37397;53.226;10.400;2023-04-24T02:16:06;99562.66;;;14.75;58.71
51313;BME280;37397;53.226;10.400;2023-04-24T02:18:32;99560.31;;;14.74;58.70
51313;BME280;37397;53.226;10.400;2023-04-24T02:20:59;99553.00;;;14.73;58.82
51313;BME280;37397;53.226;10.400;2023-04-24T02:23:26;99556.44;;;14.71;58.68
51313;BME280;37397;53.226;10.400;2023-04-24T02:25:54;99559.84;;;14.70;58.86
51313;BME280;37397;53.226;10.400;2023-04-24T02:28:20;99553.63;;;14.66;58.58
51313;BME280;37397;53.226;10.400;2023-04-24T02:30:50;99544.00;;;14.63;58.64
51313;BME280;37397;53.226;10.400;2023-04-24T02:33:16;99555.47;;;14.63;58.53
51313;BME280;37397;53.226;10.400;2023-04-24T02:35:43;99548.22;;;14.62;58.70
51313;BME280;37397;53.226;10.400;2023-04-24T02:38:09;99549.25;;;14.59;58.87
51313;BME280;37397;53.226;10.400;2023-04-24T02:40:36;99541.19;;;14.57;58.83
51313;BME280;37397;53.226;10.400;2023-04-24T02:43:03;99552.66;;;14.57;58.68
51313;BME280;37397;53.226;10.400;2023-04-24T02:45:29;99566.78;;;14.55;59.08
51313;BME280;37397;53.226;10.400;2023-04-24T02:47:56;99553.75;;;14.54;58.89
51313;BME280;37397;53.226;10.400;2023-04-24T02:50:22;99551.97;;;14.51;58.94
51313;BME280;37397;53.226;10.400;2023-04-24T02:52:49;99546.00;;;14.49;58.94
51313;BME280;37397;53.226;10.400;2023-04-24T02:55:16;99551.72;;;14.49;58.96
51313;BME280;37397;53.226;10.400;2023-04-24T02:57:43;99561.66;;;14.48;58.89
51313;BME280;37397;53.226;10.400;2023-04-24T03:00:10;99560.09;;;14.47;59.06
51313;BME280;37397;53.226;10.400;2023-04-24T03:02:37;99564.06;;;14.44;58.84
51313;BME280;37397;53.226;10.400;2023-04-24T03:05:04;99571.09;;;14.43;59.09
51313;BME280;37397;53.226;10.400;2023-04-24T03:07:31;99569.31;;;14.40;59.11
51313;BME280;37397;53.226;10.400;2023-04-24T03:09:58;99570.09;;;14.40;59.14
51313;BME280;37397;53.226;10.400;2023-04-24T03:12:26;99562.00;;;14.39;58.71
51313;BME280;37397;53.226;10.400;2023-04-24T03:14:52;99579.00;;;14.37;59.16
51313;BME280;37397;53.226;10.400;2023-04-24T03:17:19;99570.16;;;14.35;59.27
51313;BME280;37397;53.226;10.400;2023-04-24T03:19:45;99571.22;;;14.32;59.00
51313;BME280;37397;53.226;10.400;2023-04-24T03:22:12;99570.47;;;14.31;59.12
51313;BME280;37397;53.226;10.400;2023-04-24T03:24:40;99569.66;;;14.31;59.00
51313;BME280;37397;53.226;10.400;2023-04-24T03:27:07;99575.94;;;14.29;58.89
51313;BME280;37397;53.226;10.400;2023-04-24T03:29:46;99566.88;;;14.25;59.08
51313;BME280;37397;53.226;10.400;2023-04-24T03:32:15;99560.34;;;14.25;59.05
51313;BME280;37397;53.226;10.400;2023-04-24T03:34:42;99558.81;;;14.23;59.08
51313;BME280;37397;53.226;10.400;2023-04-24T03:37:11;99567.94;;;14.22;59.15
51313;BME280;37397;53.226;10.400;2023-04-24T03:39:42;99572.91;;;14.21;59.04
51313;BME280;37397;53.226;10.400;2023-04-24T03:42:10;99566.16;;;14.19;59.18
51313;BME280;37397;53.226;10.400;2023-04-24T03:44:48;99565.13;;;14.16;59.09
51313;BME280;37397;53.226;10.400;2023-04-24T03:47:15;99565.66;;;14.15;58.92
51313;BME280;37397;53.226;10.400;2023-04-24T03:49:42;99561.00;;;14.12;59.06
51313;BME280;37397;53.226;10.400;2023-04-24T03:52:09;99561.78;;;14.12;58.77
51313;BME280;37397;53.226;10.400;2023-04-24T03:54:37;99558.66;;;14.10;59.00
51313;BME280;37397;53.226;10.400;2023-04-24T03:57:04;99558.44;;;14.08;59.00
51313;BME280;37397;53.226;10.400;2023-04-24T03:59:32;99555.34;;;14.06;58.94
51313;BME280;37397;53.226;10.400;2023-04-24T04:02:08;99557.97;;;14.04;59.09
51313;BME280;37397;53.226;10.400;2023-04-24T04:04:36;99551.22;;;14.01;59.07
51313;BME280;37397;53.226;10.400;2023-04-24T04:07:04;99552.28;;;13.98;58.98
51313;BME280;37397;53.226;10.400;2023-04-24T04:09:31;99552.81;;;13.97;58.82
51313;BME280;37397;53.226;10.400;2023-04-24T04:11:59;99561.19;;;13.95;58.86
51313;BME280;37397;53.226;10.400;2023-04-24T04:14:28;99560.94;;;13.93;58.71
51313;BME280;37397;53.226;10.400;2023-04-24T04:16:54;99566.44;;;13.91;58.95
51313;BME280;37397;53.226;10.400;2023-04-24T04:19:22;99552.63;;;13.89;59.07
51313;BME280;37397;53.226;10.400;2023-04-24T04:21:48;99568.28;;;13.88;58.71
51313;BME280;37397;53.226;10.400;2023-04-24T04:24:27;99557.88;;;13.85;58.85
51313;BME280;37397;53.226;10.400;2023-04-24T04:26:57;99568.31;;;13.82;58.78
51313;BME280;37397;53.226;10.400;2023-04-24T04:29:28;99563.66;;;13.79;58.83
51313;BME280;37397;53.226;10.400;2023-04-24T04:31:55;99565.75;;;13.79;58.72
51313;BME280;37397;53.226;10.400;2023-04-24T04:34:22;99569.16;;;13.77;58.86
51313;BME280;37397;53.226;10.400;2023-04-24T04:36:50;99560.06;;;13.73;58.97
51313;BME280;37397;53.226;10.400;2023-04-24T04:39:26;99549.94;;;13.72;58.77
51313;BME280;37397;53.226;10.400;2023-04-24T04:42:07;99555.44;;;13.70;58.67
51313;BME280;37397;53.226;10.400;2023-04-24T04:44:39;99547.91;;;13.67;58.74
51313;BME280;37397;53.226;10.400;2023-04-24T04:47:10;99545.56;;;13.65;58.87
51313;BME280;37397;53.226;10.400;2023-04-24T04:49:40;99553.13;;;13.63;58.72
51313;BME280;37397;53.226;10.400;2023-04-24T04:52:14;99560.22;;;13.56;58.63
51313;BME280;37397;53.226;10.400;2023-04-24T04:54:45;99558.13;;;13.57;58.79
51313;BME280;37397;53.226;10.400;2023-04-24T04:57:12;99553.72;;;13.56;58.93
51313;BME280;37397;53.226;10.400;2023-04-24T04:59:40;99547.72;;;13.54;58.71
51313;BME280;37397;53.226;10.400;2023-04-24T05:02:13;99539.13;;;13.54;58.86
51313;BME280;37397;53.226;10.400;2023-04-24T05:04:40;99546.97;;;13.53;58.87
51313;BME280;37397;53.226;10.400;2023-04-24T05:07:07;99554.53;;;13.50;58.95
51313;BME280;37397;53.226;10.400;2023-04-24T05:09:37;99557.38;;;13.50;59.08
51313;BME280;37397;53.226;10.400;2023-04-24T05:12:05;99556.91;;;13.46;58.86
51313;BME280;37397;53.226;10.400;2023-04-24T05:14:36;99552.72;;;13.47;59.09
51313;BME280;37397;53.226;10.400;2023-04-24T05:17:03;99552.72;;;13.47;58.89
51313;BME280;37397;53.226;10.400;2023-04-24T05:19:31;99549.63;;;13.45;58.90
51313;BME280;37397;53.226;10.400;2023-04-24T05:22:02;99559.78;;;13.46;59.08
51313;BME280;37397;53.226;10.400;2023-04-24T05:24:33;99560.84;;;13.43;59.08
51313;BME280;37397;53.226;10.400;2023-04-24T05:27:09;99560.31;;;13.45;59.00
51313;BME280;37397;53.226;10.400;2023-04-24T05:29:39;99566.03;;;13.45;59.10
51313;BME280;37397;53.226;10.400;2023-04-24T05:32:07;99571.00;;;13.44;58.99
51313;BME280;37397;53.226;10.400;2023-04-24T05:34:34;99572.31;;;13.43;59.17
51313;BME280;37397;53.226;10.400;2023-04-24T05:37:01;99575.69;;;13.42;59.29
51313;BME280;37397;53.226;10.400;2023-04-24T05:39:29;99576.47;;;13.42;59.32
51313;BME280;37397;53.226;10.400;2023-04-24T05:41:55;99578.81;;;13.44;59.24
51313;BME280;37397;53.226;10.400;2023-04-24T05:44:24;99588.19;;;13.44;59.17
51313;BME280;37397;53.226;10.400;2023-04-24T05:46:51;99580.13;;;13.43;59.21
51313;BME280;37397;53.226;10.400;2023-04-24T05:49:17;99576.75;;;13.44;59.46
51313;BME280;37397;53.226;10.400;2023-04-24T05:51:45;99579.84;;;13.46;59.23
51313;BME280;37397;53.226;10.400;2023-04-24T05:54:12;99576.22;;;13.46;59.59
51313;BME280;37397;53.226;10.400;2023-04-24T05:56:39;99575.66;;;13.47;59.41
51313;BME280;37397;53.226;10.400;2023-04-24T05:59:09;99569.38;;;13.49;59.31
51313;BME280;37397;53.226;10.400;2023-04-24T06:01:36;99573.03;;;13.49;59.46
51313;BME280;37397;53.226;10.400;2023-04-24T06:04:12;99574.59;;;13.50;59.39
51313;BME280;37397;53.226;10.400;2023-04-24T06:06:42;99570.94;;;13.50;59.21
51313;BME280;37397;53.226;10.400;2023-04-24T06:09:09;99578.25;;;13.51;59.29
51313;BME280;37397;53.226;10.400;2023-04-24T06:11:35;99581.88;;;13.52;59.05
51313;BME280;37397;53.226;10.400;2023-04-24T06:14:02;99594.91;;;13.53;59.03
51313;BME280;37397;53.226;10.400;2023-04-24T06:16:49;99580.31;;;13.50;59.06
51313;BME280;37397;53.226;10.400;2023-04-24T06:19:28;99584.75;;;13.52;59.13
51313;BME280;37397;53.226;10.400;2023-04-24T06:21:55;99586.31;;;13.53;59.07
51313;BME280;37397;53.226;10.400;2023-04-24T06:24:22;99583.44;;;13.53;58.99
51313;BME280;37397;53.226;10.400;2023-04-24T06:26:50;99579.53;;;13.50;58.83
51313;BME280;37397;53.226;10.400;2023-04-24T06:29:17;99579.25;;;13.54;59.03
51313;BME280;37397;53.226;10.400;2023-04-24T06:31:43;99574.84;;;13.53;58.96
51313;BME280;37397;53.226;10.400;2023-04-24T06:34:10;99576.38;;;13.54;59.08
51313;BME280;37397;53.226;10.400;2023-04-24T06:36:37;99563.63;;;13.55;58.84
51313;BME280;37397;53.226;10.400;2023-04-24T06:39:03;99573.78;;;13.56;58.85
51313;BME280;37397;53.226;10.400;2023-04-24T06:41:30;99576.66;;;13.56;58.80
51313;BME280;37397;53.226;10.400;2023-04-24T06:43:57;99572.47;;;13.57;58.76
51313;BME280;37397;53.226;10.400;2023-04-24T06:46:24;99575.31;;;13.57;58.96
51313;BME280;37397;53.226;10.400;2023-04-24T06:48:53;99581.31;;;13.59;58.88
51313;BME280;37397;53.226;10.400;2023-04-24T06:51:23;99580.75;;;13.60;58.59
51313;BME280;37397;53.226;10.400;2023-04-24T06:53:51;99583.63;;;13.60;58.86
51313;BME280;37397;53.226;10.400;2023-04-24T06:56:19;99581.31;;;13.59;58.96
51313;BME280;37397;53.226;10.400;2023-04-24T06:58:46;99584.41;;;13.61;58.87
51313;BME280;37397;53.226;10.400;2023-04-24T07:01:13;99583.34;;;13.64;59.06
51313;BME280;37397;53.226;10.400;2023-04-24T07:03:39;99582.03;;;13.65;59.03
51313;BME280;37397;53.226;10.400;2023-04-24T07:06:06;99590.91;;;13.67;59.01
51313;BME280;37397;53.226;10.400;2023-04-24T07:08:33;99590.34;;;13.68;58.98
51313;BME280;37397;53.226;10.400;2023-04-24T07:10:59;99588.50;;;13.71;59.02
51313;BME280;37397;53.226;10.400;2023-04-24T07:13:26;99567.13;;;13.72;58.79
51313;BME280;37397;53.226;10.400;2023-04-24T07:15:53;99587.19;;;13.72;59.04
51313;BME280;37397;53.226;10.400;2023-04-24T07:18:22;99578.84;;;13.74;58.85
51313;BME280;37397;53.226;10.400;2023-04-24T07:20:49;99577.75;;;13.77;58.87
51313;BME280;37397;53.226;10.400;2023-04-24T07:23:19;99584.53;;;13.80;58.89
51313;BME280;37397;53.226;10.400;2023-04-24T07:25:46;99591.03;;;13.80;58.66
51313;BME280;37397;53.226;10.400;2023-04-24T07:28:13;99588.41;;;13.82;58.45
51313;BME280;37397;53.226;10.400;2023-04-24T07:30:39;99591.50;;;13.84;58.49
51313;BME280;37397;53.226;10.400;2023-04-24T07:33:06;99595.94;;;13.85;58.39
51313;BME280;37397;53.226;10.400;2023-04-24T07:35:33;99598.50;;;13.89;58.42
51313;BME280;37397;53.226;10.400;2023-04-24T07:38:00;99617.28;;;13.90;58.33
51313;BME280;37397;53.226;10.400;2023-04-24T07:40:27;99606.56;;;13.91;58.38
51313;BME280;37397;53.226;10.400;2023-04-24T07:42:53;99603.97;;;13.93;58.23
51313;BME280;37397;53.226;10.400;2023-04-24T07:45:20;99600.00;;;13.96;58.37
51313;BME280;37397;53.226;10.400;2023-04-24T07:47:46;99589.88;;;13.95;58.09
51313;BME280;37397;53.226;10.400;2023-04-24T07:50:13;99600.25;;;13.98;58.06
51313;BME280;37397;53.226;10.400;2023-04-24T07:52:40;99597.63;;;14.00;58.01
51313;BME280;37397;53.226;10.400;2023-04-24T07:55:07;99605.16;;;14.03;58.34
51313;BME280;37397;53.226;10.400;2023-04-24T07:57:33;99601.00;;;14.04;58.34
51313;BME280;37397;53.226;10.400;2023-04-24T08:00:00;99596.25;;;14.07;58.41
51313;BME280;37397;53.226;10.400;2023-04-24T08:02:36;99604.34;;;14.08;58.50
51313;BME280;37397;53.226;10.400;2023-04-24T08:05:03;99611.88;;;14.11;58.44
51313;BME280;37397;53.226;10.400;2023-04-24T08:07:31;99611.09;;;14.11;58.53
51313;BME280;37397;53.226;10.400;2023-04-24T08:09:57;99610.78;;;14.14;58.40
51313;BME280;37397;53.226;10.400;2023-04-24T08:12:25;99611.81;;;14.17;58.40
51313;BME280;37397;53.226;10.400;2023-04-24T08:14:52;99617.81;;;14.19;58.63
51313;BME280;37397;53.226;10.400;2023-04-24T08:17:18;99621.66;;;14.21;58.58
51313;BME280;37397;53.226;10.400;2023-04-24T08:19:45;99622.69;;;14.24;58.42
51313;BME280;37397;53.226;10.400;2023-04-24T08:22:15;99620.06;;;14.26;58.13
51313;BME280;37397;53.226;10.400;2023-04-24T08:24:41;99618.22;;;14.29;58.26
51313;BME280;37397;53.226;10.400;2023-04-24T08:27:08;99614.81;;;14.30;58.09
51313;BME280;37397;53.226;10.400;2023-04-24T08:29:36;99627.28;;;14.33;58.03
51313;BME280;37397;53.226;10.400;2023-04-24T08:32:02;99625.44;;;14.35;58.16
51313;BME280;37397;53.226;10.400;2023-04-24T08:34:29;99629.41;;;14.32;57.98
51313;BME280;37397;53.226;10.400;2023-04-24T08:36:56;99632.44;;;14.40;57.96
51313;BME280;37397;53.226;10.400;2023-04-24T08:39:23;99631.16;;;14.41;57.72
51313;BME280;37397;53.226;10.400;2023-04-24T08:41:50;99625.88;;;14.45;57.80
51313;BME280;37397;53.226;10.400;2023-04-24T08:44:17;99628.19;;;14.47;57.72
51313;BME280;37397;53.226;10.400;2023-04-24T08:46:44;99632.63;;;14.48;57.62
51313;BME280;37397;53.226;10.400;2023-04-24T08:49:13;99623.50;;;14.49;57.58
51313;BME280;37397;53.226;10.400;2023-04-24T08:51:40;99632.88;;;14.50;57.64
51313;BME280;37397;53.226;10.400;2023-04-24T08:54:07;99631.03;;;14.52;57.52
51313;BME280;37397;53.226;10.400;2023-04-24T08:56:36;99631.25;;;14.54;57.19
51313;BME280;37397;53.226;10.400;2023-04-24T08:59:06;99631.25;;;14.54;57.41
51313;BME280;37397;53.226;10.400;2023-04-24T09:01:34;99631.50;;;14.56;57.33
51313;BME280;37397;53.226;10.400;2023-04-24T09:04:02;99631.72;;;14.58;57.27
51313;BME280;37397;53.226;10.400;2023-04-24T09:06:30;99630.44;;;14.59;57.29
51313;BME280;37397;53.226;10.400;2023-04-24T09:09:00;99637.22;;;14.62;57.20
51313;BME280;37397;53.226;10.400;2023-04-24T09:11:27;99637.97;;;14.63;57.19
51313;BME280;37397;53.226;10.400;2023-04-24T09:13:54;99639.78;;;14.66;57.07
51313;BME280;37397;53.226;10.400;2023-04-24T09:16:21;99648.63;;;14.68;57.02
51313;BME280;37397;53.226;10.400;2023-04-24T09:18:50;99642.34;;;14.69;57.13
51313;BME280;37397;53.226;10.400;2023-04-24T09:21:16;99643.91;;;14.70;56.94
51313;BME280;37397;53.226;10.400;2023-04-24T09:23:43;99650.91;;;14.75;56.99
51313;BME280;37397;53.226;10.400;2023-04-24T09:26:10;99661.84;;;14.76;57.10
51313;BME280;37397;53.226;10.400;2023-04-24T09:28:38;99665.72;;;14.79;57.19
51313;BME280;37397;53.226;10.400;2023-04-24T09:31:14;99654.22;;;14.79;57.06
51313;BME280;37397;53.226;10.400;2023-04-24T09:33:57;99655.78;;;14.80;57.02
51313;BME280;37397;53.226;10.400;2023-04-24T09:36:38;99663.09;;;14.81;57.09
51313;BME280;37397;53.226;10.400;2023-04-24T09:39:09;99657.59;;;14.83;57.08
51313;BME280;37397;53.226;10.400;2023-04-24T09:41:56;99649.44;;;14.87;57.10
51313;BME280;37397;53.226;10.400;2023-04-24T09:44:28;99642.16;;;14.86;56.96
51313;BME280;37397;53.226;10.400;2023-04-24T09:46:56;99651.75;;;14.89;56.93
51313;BME280;37397;53.226;10.400;2023-04-24T09:49:24;99652.25;;;14.93;57.05
51313;BME280;37397;53.226;10.400;2023-04-24T09:51:52;99664.50;;;14.93;56.79
51313;BME280;37397;53.226;10.400;2023-04-24T09:54:20;99666.84;;;14.95;56.61
51313;BME280;37397;53.226;10.400;2023-04-24T09:56:49;99665.00;;;14.98;56.35
51313;BME280;37397;53.226;10.400;2023-04-24T09:59:18;99666.53;;;14.99;56.36
51313;BME280;37397;53.226;10.400;2023-04-24T10:01:46;99666.78;;;15.01;56.51
51313;BME280;37397;53.226;10.400;2023-04-24T10:04:19;99672.53;;;15.01;56.55
51313;BME280;37397;53.226;10.400;2023-04-24T10:06:52;99678.72;;;15.05;56.80
51313;BME280;37397;53.226;10.400;2023-04-24T10:09:21;99682.41;;;15.05;56.75
51313;BME280;37397;53.226;10.400;2023-04-24T10:11:51;99687.03;;;15.08;56.58
51313;BME280;37397;53.226;10.400;2023-04-24T10:14:20;99686.50;;;15.10;56.47
51313;BME280;37397;53.226;10.400;2023-04-24T10:16:48;99680.22;;;15.11;56.53
51313;BME280;37397;53.226;10.400;2023-04-24T10:19:16;99682.53;;;15.13;56.33
51313;BME280;37397;53.226;10.400;2023-04-24T10:21:45;99682.53;;;15.13;55.97
51313;BME280;37397;53.226;10.400;2023-04-24T10:24:16;99665.09;;;15.11;55.89
51313;BME280;37397;53.226;10.400;2023-04-24T10:26:45;99672.31;;;15.18;55.67
51313;BME280;37397;53.226;10.400;2023-04-24T10:29:13;99678.81;;;15.18;55.84
51313;BME280;37397;53.226;10.400;2023-04-24T10:31:42;99677.50;;;15.19;55.76
51313;BME280;37397;53.226;10.400;2023-04-24T10:34:12;99672.78;;;15.22;55.82
51313;BME280;37397;53.226;10.400;2023-04-24T10:36:41;99679.31;;;15.22;55.56
51313;BME280;37397;53.226;10.400;2023-04-24T10:39:11;99665.16;;;15.24;55.66
51313;BME280;37397;53.226;10.400;2023-04-24T10:41:39;99678.22;;;15.25;55.41
51313;BME280;37397;53.226;10.400;2023-04-24T10:44:10;99667.75;;;15.28;55.45
51313;BME280;37397;53.226;10.400;2023-04-24T10:46:38;99660.66;;;15.29;55.40
51313;BME280;37397;53.226;10.400;2023-04-24T10:49:06;99679.47;;;15.30;55.43
51313;BME280;37397;53.226;10.400;2023-04-24T10:51:48;99672.94;;;15.29;55.52
51313;BME280;37397;53.226;10.400;2023-04-24T10:59:47;99664.25;;;15.35;55.41
51313;BME280;37397;53.226;10.400;2023-04-24T11:02:15;99670.75;;;15.36;55.29
51313;BME280;37397;53.226;10.400;2023-04-24T11:04:42;99672.31;;;15.37;54.88
51313;BME280;37397;53.226;10.400;2023-04-24T11:07:10;99659.50;;;15.38;55.00
51313;BME280;37397;53.226;10.400;2023-04-24T11:09:37;99671.22;;;15.40;54.87
51313;BME280;37397;53.226;10.400;2023-04-24T11:12:08;99671.00;;;15.38;55.07
51313;BME280;37397;53.226;10.400;2023-04-24T11:17:36;99672.31;;;15.37;54.29
51313;BME280;37397;53.226;10.400;2023-04-24T11:20:06;99665.47;;;15.40;54.38
51313;BME280;37397;53.226;10.400;2023-04-24T11:22:53;99661.38;;;15.35;54.19
51313;BME280;37397;53.226;10.400;2023-04-24T11:25:24;99658.16;;;15.39;54.32
51313;BME280;37397;53.226;10.400;2023-04-24T11:28:03;99658.16;;;15.39;54.36
51313;BME280;37397;53.226;10.400;2023-04-24T11:30:31;99668.59;;;15.42;54.17
51313;BME280;37397;53.226;10.400;2023-04-24T11:33:05;99666.50;;;15.42;54.03
51313;BME280;37397;53.226;10.400;2023-04-24T11:35:39;99672.78;;;15.41;53.98
51313;BME280;37397;53.226;10.400;2023-04-24T11:38:06;99658.88;;;15.45;54.36
51313;BME280;37397;53.226;10.400;2023-04-24T11:40:36;99667.72;;;15.47;54.10
51313;BME280;37397;53.226;10.400;2023-04-24T11:43:05;99670.59;;;15.47;53.62
51313;BME280;37397;53.226;10.400;2023-04-24T11:45:33;99670.38;;;15.45;53.80
51313;BME280;37397;53.226;10.400;2023-04-24T11:48:00;99671.63;;;15.49;53.78
51313;BME280;37397;53.226;10.400;2023-04-24T11:50:27;99671.06;;;15.51;53.69
51313;BME280;37397;53.226;10.400;2023-04-24T11:52:55;99677.84;;;15.54;53.66
51313;BME280;37397;53.226;10.400;2023-04-24T11:57:50;99678.84;;;15.56;53.63
51313;BME280;37397;53.226;10.400;2023-04-24T12:00:25;99693.22;;;15.56;53.52
51313;BME280;37397;53.226;10.400;2023-04-24T12:03:08;99689.56;;;15.56;53.46
51313;BME280;37397;53.226;10.400;2023-04-24T12:05:36;99691.66;;;15.55;53.50
51313;BME280;37397;53.226;10.400;2023-04-24T12:08:03;99687.69;;;15.58;53.39
51313;BME280;37397;53.226;10.400;2023-04-24T12:10:31;99689.03;;;15.57;53.43
51313;BME280;37397;53.226;10.400;2023-04-24T12:12:58;99690.34;;;15.56;53.48
51313;BME280;37397;53.226;10.400;2023-04-24T12:15:26;99683.50;;;15.59;53.27
51313;BME280;37397;53.226;10.400;2023-04-24T12:17:54;99695.00;;;15.59;53.48
51313;BME280;37397;53.226;10.400;2023-04-24T12:20:32;99688.47;;;15.59;53.38
51313;BME280;37397;53.226;10.400;2023-04-24T12:23:00;99692.13;;;15.59;53.47
51313;BME280;37397;53.226;10.400;2023-04-24T12:25:33;99685.84;;;15.61;53.48
51313;BME280;37397;53.226;10.400;2023-04-24T12:30:34;99689.72;;;15.63;53.58
51313;BME280;37397;53.226;10.400;2023-04-24T12:33:02;99686.31;;;15.65;53.84
51313;BME280;37397;53.226;10.400;2023-04-24T12:35:33;99680.00;;;15.66;53.73
51313;BME280;37397;53.226;10.400;2023-04-24T12:38:08;99686.53;;;15.67;53.43
51313;BME280;37397;53.226;10.400;2023-04-24T12:40:35;99686.75;;;15.69;53.55
51313;BME280;37397;53.226;10.400;2023-04-24T12:43:02;99689.09;;;15.71;53.64
51313;BME280;37397;53.226;10.400;2023-04-24T12:45:38;99679.16;;;15.72;53.80
51313;BME280;37397;53.226;10.400;2023-04-24T12:48:05;99685.13;;;15.74;53.45
51313;BME280;37397;53.226;10.400;2023-04-24T12:50:31;99683.81;;;15.75;53.71
51313;BME280;37397;53.226;10.400;2023-04-24T12:52:58;99688.22;;;15.76;53.84
51313;BME280;37397;53.226;10.400;2023-04-24T12:55:25;99692.69;;;15.77;53.86
51313;BME280;37397;53.226;10.400;2023-04-24T12:57:51;99690.03;;;15.79;53.89
51313;BME280;37397;53.226;10.400;2023-04-24T13:00:19;99694.47;;;15.80;53.93
51313;BME280;37397;53.226;10.400;2023-04-24T13:02:46;99692.91;;;15.79;53.76
51313;BME280;37397;53.226;10.400;2023-04-24T13:05:13;99697.34;;;15.80;53.42
51313;BME280;37397;53.226;10.400;2023-04-24T13:07:40;99695.78;;;15.79;53.61
51313;BME280;37397;53.226;10.400;2023-04-24T13:10:07;99695.25;;;15.80;53.90